International Virtual Aviation Organisation

Eastern Europe and Northern Asia MCD

 
URKA 110300Z AUTO 05005MPS 8000 -RA ///014/// 06/04 Q1019 RMK QFE760/1014
QNH:(hPa/inHg/mmHg)1019 / 30.09 / 764
QFE:(hPa/inHg/mmHg)1012 / 29.90 / 759
Temperature6
Dew Point4
Visibility8000
WeatherLight Rain
Cloud Cover
Transition Height1100 m./3800 ft.
Transition LevelFL50
SQUAWK